ICT,Max TemperatureF,Mean TemperatureF,Min TemperatureF,Max Dew PointF,MeanDew PointF,Min DewpointF,Max Humidity, Mean Humidity, Min Humidity, Max Sea Level PressureIn, Mean Sea Level PressureIn, Min Sea Level PressureIn, Max VisibilityMiles, Mean VisibilityMiles, Min VisibilityMiles, Max Wind SpeedMPH, Mean Wind SpeedMPH, Max Gust SpeedMPH,PrecipitationIn, CloudCover, Events, WindDirDegrees
2012-10-1,86,80,75,79,77,75,100,88,74,29.92,29.88,29.83,6,3,2,12,1,,0.00,6,Rain-Thunderstorm,48
2012-10-2,87,82,77,79,77,75,100,92,70,29.92,29.87,29.80,4,3,1,12,1,,0.00,6,Rain-Thunderstorm,20
2012-10-3,87,82,77,79,76,73,94,83,70,29.89,29.82,29.74,6,4,2,7,1,,0.00,6,Thunderstorm,309
2012-10-4,87,82,78,77,75,72,94,80,62,29.83,29.78,29.71,6,6,3,9,2,,0.00,6,Rain-Thunderstorm,259
2012-10-5,89,83,75,77,74,70,94,74,58,29.86,29.79,29.71,6,6,5,12,3,,0.00,6,Rain-Thunderstorm,288
2012-10-6,84,80,75,77,74,70,94,83,66,29.89,29.82,29.77,6,4,1,7,3,,0.00,6,Rain-Thunderstorm,332
2012-10-7,80,78,75,77,75,70,94,89,78,29.86,29.81,29.77,5,3,1,8,4,,0.00,6,Rain-Thunderstorm,35
2012-10-8,82,78,75,77,72,70,94,85,78,29.83,29.76,29.68,6,4,2,9,5,,0.00,6,Rain,20
2012-10-9,84,80,77,73,73,70,83,76,62,29.86,29.81,29.74,6,6,4,9,3,,0.00,6,Rain,196
2012-10-10,86,82,77,75,74,72,89,80,62,29.92,29.85,29.77,6,5,4,9,2,,0.00,6,Rain-Thunderstorm,360
2012-10-11,87,81,75,75,73,70,89,80,62,29.92,29.84,29.77,4,3,1,9,2,,0.00,5,Rain-Thunderstorm,359
2012-10-12,87,82,77,75,73,36,89,77,22,29.92,29.84,29.77,4,3,1,7,2,,0.00,6,Rain-Thunderstorm,253
2012-10-13,86,82,77,75,74,73,89,80,66,29.89,29.82,29.77,3,3,2,12,1,,0.00,6,Rain-Thunderstorm,237
2012-10-14,87,81,75,75,73,70,94,76,55,29.92,29.85,29.80,2,2,1,14,2,,0.00,6,Rain-Thunderstorm,246
2012-10-15,84,80,75,75,74,72,94,82,66,29.98,29.88,29.83,4,2,1,9,1,,0.00,6,Rain-Thunderstorm,201
2012-10-16,89,83,77,75,73,68,89,76,52,29.95,29.89,29.83,4,2,1,7,1,,0.00,6,Rain-Thunderstorm,286
2012-10-17,86,80,75,75,72,70,94,77,58,29.95,29.87,29.77,3,2,1,9,2,,0.00,6,Rain-Thunderstorm,5
2012-10-18,91,84,77,72,68,59,78,62,34,29.92,29.87,29.83,6,4,3,12,3,,0.00,6,Rain-Thunderstorm,127
2012-10-19,91,83,75,73,67,61,78,61,36,29.92,29.88,29.83,4,3,2,9,3,,0.00,6,Thunderstorm,22
2012-10-20,93,85,77,72,67,55,83,59,28,29.92,29.86,29.80,3,3,2,7,3,,0.00,5,,345
2012-10-21,93,86,78,75,70,64,79,63,38,29.92,29.86,29.80,2,2,1,37,2,,0.00,6,Thunderstorm,1
2012-10-22,93,86,78,73,70,59,79,63,32,29.92,29.84,29.77,4,3,2,9,2,,0.00,6,,357
2012-10-23,91,84,78,73,69,63,79,65,38,29.86,29.81,29.74,6,4,2,9,3,,0.00,6,Rain-Thunderstorm,41
2012-10-24,91,84,78,73,70,66,79,63,46,29.86,29.80,29.74,6,6,4,12,3,,0.00,6,Rain-Thunderstorm,166
2012-10-25,91,84,78,73,70,61,79,64,38,29.86,29.79,29.71,6,5,4,9,2,,0.00,6,,206
2012-10-26,93,86,78,72,70,66,78,63,43,29.83,29.77,29.71,6,4,2,9,2,,0.00,5,Rain-Thunderstorm,360
2012-10-27,95,86,78,73,68,57,78,58,28,29.83,29.76,29.71,6,5,4,12,3,,0.00,5,,58
2012-10-28,93,85,77,73,68,63,74,57,36,29.83,29.79,29.74,6,5,4,7,2,,0.00,6,,226
2012-10-29,91,86,80,73,72,68,79,65,49,29.86,29.80,29.74,6,5,2,7,1,,0.00,6,Rain-Thunderstorm,242
2012-10-30,91,84,77,75,71,68,79,66,46,29.86,29.79,29.71,6,5,4,14,3,,0.00,6,Rain-Thunderstorm,282
2012-10-31,89,84,78,75,70,66,78,64,46,29.89,29.83,29.77,6,5,3,12,3,,0.00,6,Rain-Thunderstorm,17